createdAt,value
2022-10-19T00:01:59.644Z,4.17
2022-10-19T00:04:26.141Z,3.63
2022-10-19T00:06:52.687Z,3.83
2022-10-19T00:09:19.632Z,3.67
2022-10-19T00:11:48.325Z,3.70
2022-10-19T00:14:18.041Z,3.57
2022-10-19T00:16:45.990Z,4.10
2022-10-19T00:19:16.956Z,3.30
2022-10-19T00:21:43.504Z,3.90
2022-10-19T00:24:10.431Z,3.60
2022-10-19T00:26:37.237Z,3.50
2022-10-19T00:29:05.329Z,3.90
2022-10-19T00:31:31.877Z,3.97
2022-10-19T00:33:58.882Z,3.73
2022-10-19T00:36:31.082Z,3.67
2022-10-19T00:38:58.651Z,3.60
2022-10-19T00:41:27.898Z,3.50
2022-10-19T00:44:07.645Z,3.77
2022-10-19T00:46:36.260Z,3.70
2022-10-19T00:49:09.877Z,3.50
2022-10-19T00:51:40.685Z,3.23
2022-10-19T00:54:08.436Z,3.97
2022-10-19T00:56:34.981Z,3.23
2022-10-19T00:59:05.818Z,3.30
2022-10-19T01:01:33.473Z,3.67
2022-10-19T01:04:00.850Z,3.27
2022-10-19T01:06:27.532Z,3.30
2022-10-19T01:08:54.202Z,3.37
2022-10-19T01:11:50.979Z,3.63
2022-10-19T01:14:38.846Z,3.33
2022-10-19T01:17:27.333Z,3.37
2022-10-19T01:20:10.040Z,3.20
2022-10-19T01:22:45.496Z,3.10
2022-10-19T01:25:21.241Z,3.20
2022-10-19T01:28:03.278Z,3.33
2022-10-19T01:30:44.737Z,3.27
2022-10-19T01:33:34.258Z,3.10
2022-10-19T01:36:15.890Z,3.70
2022-10-19T01:39:38.296Z,3.30
2022-10-19T01:42:24.309Z,3.57
2022-10-19T01:44:54.571Z,3.10
2022-10-19T01:47:52.206Z,3.40
2022-10-19T01:50:32.387Z,3.17
2022-10-19T01:52:59.298Z,3.73
2022-10-19T01:55:26.975Z,3.30
2022-10-19T01:58:03.025Z,3.43
2022-10-19T02:00:29.815Z,3.47
2022-10-19T02:02:56.433Z,3.50
2022-10-19T02:05:27.188Z,3.07
2022-10-19T02:07:58.495Z,2.90
2022-10-19T02:10:25.840Z,3.50
2022-10-19T02:12:53.208Z,3.23
2022-10-19T02:15:22.579Z,3.10
2022-10-19T02:17:52.008Z,2.60
2022-10-19T02:20:19.143Z,3.07
2022-10-19T02:22:45.620Z,2.97
2022-10-19T02:25:12.478Z,3.17
2022-10-19T02:27:41.869Z,3.07
2022-10-19T02:30:13.444Z,3.87
2022-10-19T02:32:40.421Z,3.20
2022-10-19T02:35:07.227Z,2.97
2022-10-19T02:37:33.881Z,3.20
2022-10-19T02:40:01.262Z,3.33
2022-10-19T02:42:57.126Z,3.03
2022-10-19T02:45:36.949Z,2.73
2022-10-19T02:48:10.597Z,3.00
2022-10-19T02:50:37.438Z,2.97
2022-10-19T02:53:03.956Z,3.40
2022-10-19T02:55:30.827Z,3.63
2022-10-19T02:57:57.518Z,2.87
2022-10-19T03:00:24.134Z,2.90
2022-10-19T03:02:50.753Z,3.13
2022-10-19T03:05:17.448Z,3.23
2022-10-19T03:07:43.921Z,3.10
2022-10-19T03:10:10.565Z,3.30
2022-10-19T03:12:37.101Z,3.10
2022-10-19T03:15:04.331Z,2.77
2022-10-19T03:17:31.112Z,2.50
2022-10-19T03:19:57.722Z,3.03
2022-10-19T03:22:24.297Z,3.23
2022-10-19T03:24:50.959Z,2.57
2022-10-19T03:27:17.413Z,3.30
2022-10-19T03:29:43.943Z,3.10
2022-10-19T03:32:10.637Z,3.23
2022-10-19T03:34:37.093Z,3.10
2022-10-19T03:37:03.822Z,3.57
2022-10-19T03:39:30.657Z,2.87
2022-10-19T03:41:57.099Z,3.03
2022-10-19T03:44:23.648Z,3.50
2022-10-19T03:46:50.292Z,3.20
2022-10-19T03:49:16.750Z,3.57
2022-10-19T03:51:43.529Z,3.07
2022-10-19T03:54:14.849Z,3.27
2022-10-19T03:56:41.765Z,3.67
2022-10-19T03:59:08.930Z,3.47
2022-10-19T04:01:42.876Z,3.53
2022-10-19T04:04:15.073Z,3.20
2022-10-19T04:06:43.757Z,3.47
2022-10-19T04:09:13.245Z,2.80
2022-10-19T04:11:39.874Z,3.50
2022-10-19T04:14:06.580Z,3.40
2022-10-19T04:16:33.202Z,3.70
2022-10-19T04:19:00.284Z,3.50
2022-10-19T04:21:31.201Z,3.40
2022-10-19T04:24:03.400Z,3.20
2022-10-19T04:26:30.335Z,3.20
2022-10-19T04:28:58.729Z,3.00
2022-10-19T04:31:25.772Z,3.50
2022-10-19T04:33:52.229Z,3.53
2022-10-19T04:36:18.730Z,3.77
2022-10-19T04:38:45.576Z,3.70
2022-10-19T04:41:14.474Z,3.50
2022-10-19T04:43:41.167Z,3.70
2022-10-19T04:46:10.492Z,3.57
2022-10-19T04:48:38.270Z,3.57
2022-10-19T04:51:05.376Z,3.70
2022-10-19T04:53:33.227Z,4.10
2022-10-19T04:56:00.141Z,4.47
2022-10-19T04:58:27.450Z,4.00
2022-10-19T05:00:54.077Z,3.90
2022-10-19T05:03:20.842Z,3.80
2022-10-19T05:05:47.336Z,3.70
2022-10-19T05:08:13.957Z,4.00
2022-10-19T05:10:43.142Z,3.77
2022-10-19T05:13:12.280Z,3.90
2022-10-19T05:15:38.750Z,3.40
2022-10-19T05:18:05.286Z,3.43
2022-10-19T05:20:31.968Z,3.87
2022-10-19T05:22:59.118Z,3.93
2022-10-19T05:25:26.722Z,3.90
2022-10-19T05:27:53.808Z,4.27
2022-10-19T05:30:21.912Z,4.23
2022-10-19T05:32:49.031Z,3.53
2022-10-19T05:35:18.642Z,4.30
2022-10-19T05:37:48.118Z,3.47
2022-10-19T05:40:14.658Z,4.00
2022-10-19T05:42:41.237Z,4.20
2022-10-19T05:45:08.063Z,3.80
2022-10-19T05:47:35.327Z,3.97
2022-10-19T05:50:02.112Z,5.33
2022-10-19T05:52:29.078Z,4.60
2022-10-19T05:54:56.547Z,5.00
2022-10-19T05:57:23.035Z,4.53
2022-10-19T05:59:49.476Z,4.73
2022-10-19T06:02:16.034Z,4.00
2022-10-19T06:04:42.488Z,4.00
2022-10-19T06:07:09.123Z,4.07
2022-10-19T06:09:36.763Z,4.50
2022-10-19T06:12:03.833Z,4.43
2022-10-19T06:14:30.464Z,4.80
2022-10-19T06:16:57.688Z,4.37
2022-10-19T06:19:24.262Z,4.50
2022-10-19T06:21:50.782Z,4.83
2022-10-19T06:24:17.292Z,4.60
2022-10-19T06:26:43.990Z,4.30
2022-10-19T06:29:10.502Z,5.07
2022-10-19T06:31:37.268Z,4.93
2022-10-19T06:34:04.444Z,4.50
2022-10-19T06:36:32.180Z,4.97
2022-10-19T06:38:59.946Z,4.83
2022-10-19T06:41:26.657Z,5.00
2022-10-19T06:43:54.320Z,5.40
2022-10-19T06:46:23.380Z,5.00
2022-10-19T06:48:51.672Z,5.40
2022-10-19T06:51:18.478Z,4.80
2022-10-19T06:53:45.028Z,4.97
2022-10-19T06:56:11.608Z,5.00
2022-10-19T06:58:38.852Z,5.30
2022-10-19T07:01:11.798Z,5.23
2022-10-19T07:03:38.481Z,4.90
2022-10-19T07:06:10.235Z,5.50
2022-10-19T07:08:38.598Z,5.07
2022-10-19T07:11:07.943Z,5.57
2022-10-19T07:13:34.945Z,5.23
2022-10-19T07:16:15.778Z,5.37
2022-10-19T07:18:46.577Z,6.17
2022-10-19T07:21:16.089Z,5.90
2022-10-19T07:23:43.999Z,8.30
2022-10-19T07:26:16.623Z,7.03
2022-10-19T07:28:45.872Z,6.17
2022-10-19T07:31:14.806Z,5.30
2022-10-19T07:33:41.379Z,6.93
2022-10-19T07:36:09.554Z,6.33
2022-10-19T07:38:37.000Z,5.90
2022-10-19T07:41:12.806Z,6.30
2022-10-19T07:43:40.573Z,6.87
2022-10-19T07:46:10.943Z,7.50
2022-10-19T07:48:37.401Z,6.33
2022-10-19T07:51:07.180Z,6.80
2022-10-19T07:53:34.560Z,7.27
2022-10-19T07:56:05.316Z,6.50
2022-10-19T07:58:31.974Z,6.40
2022-10-19T08:01:03.143Z,12.17
2022-10-19T08:06:19.228Z,6.97
2022-10-19T08:08:46.880Z,6.27
2022-10-19T08:11:17.470Z,6.17
2022-10-19T08:13:44.158Z,6.73
2022-10-19T08:16:33.568Z,6.00
2022-10-19T08:19:02.752Z,7.73
2022-10-19T08:21:30.485Z,6.07
2022-10-19T08:23:57.546Z,6.83
2022-10-19T08:26:24.105Z,5.93
2022-10-19T08:28:50.617Z,5.90
2022-10-19T08:31:20.259Z,6.03
2022-10-19T08:33:48.702Z,5.37
2022-10-19T08:36:15.381Z,5.00
2022-10-19T08:38:44.698Z,6.50
2022-10-19T08:41:29.966Z,5.47
2022-10-19T08:44:16.773Z,6.17
2022-10-19T08:47:00.516Z,5.83
2022-10-19T08:49:30.800Z,5.23
2022-10-19T08:52:00.869Z,5.90
2022-10-19T08:54:49.277Z,5.53
2022-10-19T08:57:31.702Z,5.40
2022-10-19T09:00:14.812Z,5.20
2022-10-19T09:03:00.042Z,5.63
2022-10-19T09:05:46.859Z,4.83
2022-10-19T09:08:17.549Z,5.13
2022-10-19T09:10:47.028Z,5.40
2022-10-19T09:13:22.619Z,5.27
2022-10-19T09:15:51.357Z,5.03
2022-10-19T09:18:20.849Z,4.80
2022-10-19T09:20:50.209Z,4.73
2022-10-19T09:23:21.516Z,6.50
2022-10-19T09:25:50.502Z,5.83
2022-10-19T09:28:39.956Z,4.93
2022-10-19T09:31:13.178Z,4.80
2022-10-19T09:33:40.614Z,4.90
2022-10-19T09:36:07.929Z,4.43
2022-10-19T09:38:34.711Z,3.90
2022-10-19T09:41:27.665Z,3.87
2022-10-19T09:43:55.705Z,3.63
2022-10-19T09:46:38.906Z,3.40
2022-10-19T09:49:06.089Z,4.07
2022-10-19T09:51:50.477Z,3.50
2022-10-19T09:54:32.458Z,3.17
2022-10-19T09:56:59.016Z,4.00
2022-10-19T09:59:38.109Z,3.80
2022-10-19T10:02:14.097Z,3.60
2022-10-19T10:04:40.702Z,3.70
2022-10-19T10:07:15.399Z,3.37
2022-10-19T10:09:44.296Z,2.80
2022-10-19T10:12:13.914Z,2.87
2022-10-19T10:14:40.997Z,2.17
2022-10-19T10:17:13.440Z,2.13
2022-10-19T10:19:51.091Z,2.10
2022-10-19T10:22:30.513Z,2.13
2022-10-19T10:24:57.212Z,2.07
2022-10-19T10:27:34.667Z,2.53
2022-10-19T10:30:07.610Z,3.30
2022-10-19T10:32:38.306Z,1.83
2022-10-19T10:35:08.335Z,1.53
2022-10-19T10:37:39.557Z,1.83
2022-10-19T10:40:07.365Z,2.10
2022-10-19T10:42:42.637Z,2.57
2022-10-19T10:45:29.624Z,2.40
2022-10-19T10:47:57.138Z,2.17
2022-10-19T10:50:32.722Z,2.50
2022-10-19T10:53:00.504Z,2.43
2022-10-19T10:55:27.889Z,2.30
2022-10-19T10:58:15.143Z,2.43
2022-10-19T11:00:42.300Z,2.80
2022-10-19T11:03:20.348Z,2.40
2022-10-19T11:05:49.405Z,2.40
2022-10-19T11:08:22.609Z,2.40
2022-10-19T11:10:52.603Z,2.20
2022-10-19T11:13:28.389Z,2.47
2022-10-19T11:15:57.744Z,3.13
2022-10-19T11:18:31.239Z,3.20
2022-10-19T11:21:13.470Z,2.50
2022-10-19T11:23:54.439Z,2.57
2022-10-19T11:26:40.692Z,2.07
2022-10-19T11:29:33.197Z,1.87
2022-10-19T11:31:59.826Z,1.63
2022-10-19T11:34:44.926Z,1.77
2022-10-19T11:37:14.389Z,1.50
2022-10-19T11:40:22.252Z,1.87
2022-10-19T11:43:02.747Z,1.57
2022-10-19T11:45:41.647Z,1.40
2022-10-19T11:48:43.959Z,1.47
2022-10-19T11:51:21.875Z,1.40
2022-10-19T11:54:05.432Z,1.80
2022-10-19T11:57:07.257Z,1.77
2022-10-19T11:59:53.600Z,1.63
2022-10-19T12:02:23.101Z,1.70
2022-10-19T12:04:52.375Z,1.80
2022-10-19T12:07:37.728Z,1.80
2022-10-19T12:10:16.952Z,1.60
2022-10-19T12:12:47.403Z,1.77
2022-10-19T12:15:29.083Z,1.80
2022-10-19T12:17:58.676Z,1.53
2022-10-19T12:20:29.969Z,1.60
2022-10-19T12:22:59.150Z,1.83
2022-10-19T12:25:26.182Z,2.60
2022-10-19T12:27:52.977Z,1.57
2022-10-19T12:30:21.919Z,1.80
2022-10-19T12:33:18.997Z,1.53
2022-10-19T12:36:00.703Z,2.03
2022-10-19T12:38:30.373Z,2.30
2022-10-19T12:41:05.955Z,1.83
2022-10-19T12:43:43.173Z,1.80
2022-10-19T12:46:36.275Z,1.63
2022-10-19T12:49:30.758Z,2.00
2022-10-19T12:51:58.889Z,1.90
2022-10-19T12:54:27.491Z,1.97
2022-10-19T12:56:56.017Z,1.30
2022-10-19T12:59:32.772Z,1.83
2022-10-19T13:01:59.645Z,2.10
2022-10-19T13:04:31.823Z,2.10
2022-10-19T13:06:58.304Z,2.20
2022-10-19T13:09:30.585Z,1.70
2022-10-19T13:12:19.575Z,1.80
2022-10-19T13:14:54.343Z,1.73
2022-10-19T13:17:36.909Z,1.80
2022-10-19T13:20:16.142Z,1.93
2022-10-19T13:22:50.861Z,1.70
2022-10-19T13:25:21.275Z,1.70
2022-10-19T13:27:49.462Z,1.70
2022-10-19T13:30:47.147Z,1.83
2022-10-19T13:33:25.923Z,2.27
2022-10-19T13:35:58.724Z,2.00
2022-10-19T13:38:37.457Z,1.70
2022-10-19T13:41:42.428Z,2.03
2022-10-19T13:44:09.026Z,2.00
2022-10-19T13:46:38.360Z,1.97
2022-10-19T13:49:33.022Z,2.00
2022-10-19T13:52:08.319Z,2.07
2022-10-19T13:54:44.098Z,1.90
2022-10-19T13:57:19.829Z,2.03
2022-10-19T14:00:01.880Z,1.60
2022-10-19T14:03:05.358Z,1.70
2022-10-19T14:05:55.921Z,3.33
2022-10-19T14:08:37.830Z,2.30
2022-10-19T14:11:16.224Z,2.00
2022-10-19T14:13:43.627Z,2.13
2022-10-19T14:16:19.926Z,1.80
2022-10-19T14:18:54.679Z,2.03
2022-10-19T14:21:34.833Z,1.40
2022-10-19T14:24:01.334Z,1.40
2022-10-19T14:26:32.481Z,1.70
2022-10-19T14:29:00.096Z,1.60
2022-10-19T14:31:34.853Z,1.77
2022-10-19T14:34:03.367Z,1.67
2022-10-19T14:36:48.353Z,1.60
2022-10-19T14:39:25.061Z,1.80
2022-10-19T14:41:55.053Z,1.90
2022-10-19T14:44:50.763Z,2.10
2022-10-19T14:47:27.295Z,1.67
2022-10-19T14:49:53.830Z,1.80
2022-10-19T14:55:01.048Z,1.60
2022-10-19T14:57:31.196Z,2.27
2022-10-19T15:00:02.547Z,1.70
2022-10-19T15:02:31.335Z,1.93
2022-10-19T15:05:01.100Z,1.97
2022-10-19T15:07:30.518Z,1.50
2022-10-19T15:09:59.837Z,1.80
2022-10-19T15:12:30.035Z,2.20
2022-10-19T15:14:57.660Z,1.73
2022-10-19T15:17:28.344Z,1.67
2022-10-19T15:19:56.152Z,2.10
2022-10-19T15:22:33.798Z,1.80
2022-10-19T15:25:00.431Z,1.83
2022-10-19T15:27:47.665Z,1.90
2022-10-19T15:30:22.984Z,1.70
2022-10-19T15:32:53.001Z,1.83
2022-10-19T15:35:34.377Z,1.93
2022-10-19T15:38:24.577Z,1.93
2022-10-19T15:40:57.452Z,1.73
2022-10-19T15:43:31.060Z,2.37
2022-10-19T15:46:21.104Z,2.20
2022-10-19T15:48:51.193Z,2.30
2022-10-19T15:51:23.394Z,1.80
2022-10-19T15:53:55.835Z,1.63
2022-10-19T15:56:25.782Z,2.70
2022-10-19T15:58:55.048Z,1.80
2022-10-19T16:01:24.237Z,2.07
2022-10-19T16:03:51.112Z,1.97
2022-10-19T16:06:18.708Z,1.80
2022-10-19T16:08:51.092Z,1.93
2022-10-19T16:11:19.505Z,2.00
2022-10-19T16:13:45.968Z,1.80
2022-10-19T16:16:15.424Z,2.20
2022-10-19T16:18:41.952Z,2.30
2022-10-19T16:21:08.469Z,1.97
2022-10-19T16:23:39.345Z,1.90
2022-10-19T16:26:08.746Z,2.23
2022-10-19T16:28:36.033Z,2.33
2022-10-19T16:31:02.632Z,2.07
2022-10-19T16:33:29.119Z,2.63
2022-10-19T16:35:55.602Z,2.27
2022-10-19T16:38:25.037Z,2.40
2022-10-19T16:40:51.510Z,2.80
2022-10-19T16:43:17.966Z,2.60
2022-10-19T16:45:44.816Z,2.80
2022-10-19T16:48:14.740Z,3.60
2022-10-19T16:50:41.361Z,3.60
2022-10-19T16:53:12.776Z,2.83
2022-10-19T16:55:40.552Z,2.83
2022-10-19T16:58:07.118Z,2.70
2022-10-19T17:00:34.060Z,2.90
2022-10-19T17:03:00.613Z,3.90
2022-10-19T17:05:27.171Z,2.50
2022-10-19T17:07:53.879Z,2.57
2022-10-19T17:10:20.524Z,2.67
2022-10-19T17:12:47.209Z,2.90
2022-10-19T17:15:43.731Z,2.73
2022-10-19T17:18:00.295Z,2.20
2022-10-19T17:20:26.806Z,2.53
2022-10-19T17:22:53.278Z,2.50
2022-10-19T17:25:19.913Z,2.50
2022-10-19T17:27:50.361Z,3.10
2022-10-19T17:30:17.034Z,2.87
2022-10-19T17:32:43.591Z,2.70
2022-10-19T17:35:10.352Z,2.87
2022-10-19T17:37:37.222Z,2.43
2022-10-19T17:40:04.305Z,2.60
2022-10-19T17:42:31.276Z,2.77
2022-10-19T17:44:58.013Z,2.40
2022-10-19T17:47:24.550Z,2.33
2022-10-19T17:49:51.238Z,2.30
2022-10-19T17:52:17.748Z,2.37
2022-10-19T17:54:54.665Z,2.30
2022-10-19T17:57:30.931Z,1.90
2022-10-19T17:59:57.606Z,1.90
2022-10-19T18:02:24.164Z,4.47
2022-10-19T18:04:50.726Z,3.00
2022-10-19T18:07:17.401Z,2.20
2022-10-19T18:09:43.982Z,3.20
2022-10-19T18:12:13.404Z,2.30
2022-10-19T18:14:40.421Z,2.73
2022-10-19T18:17:06.989Z,2.27
2022-10-19T18:19:33.497Z,2.80
2022-10-19T18:22:00.021Z,2.50
2022-10-19T18:24:26.482Z,3.60
2022-10-19T18:26:53.349Z,3.00
2022-10-19T18:29:24.915Z,2.90
2022-10-19T18:31:52.792Z,2.63
2022-10-19T18:34:21.808Z,2.57
2022-10-19T18:36:49.087Z,2.93
2022-10-19T18:39:16.168Z,2.50
2022-10-19T18:41:42.887Z,2.30
2022-10-19T18:44:12.665Z,2.87
2022-10-19T18:46:39.172Z,3.37
2022-10-19T18:49:08.399Z,3.17
2022-10-19T18:51:34.997Z,4.00
2022-10-19T18:54:01.844Z,4.63
2022-10-19T18:56:29.467Z,4.87
2022-10-19T18:58:56.673Z,4.03
2022-10-19T19:01:28.407Z,3.70
2022-10-19T19:03:57.082Z,3.17
2022-10-19T19:06:26.024Z,3.40
2022-10-19T19:08:57.260Z,3.90
2022-10-19T19:11:26.290Z,3.93
2022-10-19T19:14:01.274Z,3.57
2022-10-19T19:16:29.136Z,3.70
2022-10-19T19:18:55.962Z,4.07
2022-10-19T19:21:27.711Z,3.30
2022-10-19T19:23:55.651Z,5.07
2022-10-19T19:26:23.536Z,4.70
2022-10-19T19:28:51.651Z,3.90
2022-10-19T19:31:18.790Z,3.20
2022-10-19T19:33:46.207Z,2.83
2022-10-19T19:36:14.513Z,3.03
2022-10-19T19:38:41.162Z,3.10
2022-10-19T19:41:09.405Z,3.47
2022-10-19T19:43:37.232Z,3.40
2022-10-19T19:46:08.875Z,3.67
2022-10-19T19:48:36.739Z,3.70
2022-10-19T19:51:03.478Z,3.30
2022-10-19T19:53:30.076Z,3.97
2022-10-19T19:55:56.580Z,3.40
2022-10-19T19:58:23.227Z,3.30
2022-10-19T20:00:49.725Z,3.50
2022-10-19T20:03:16.353Z,3.57
2022-10-19T20:05:43.079Z,3.43
2022-10-19T20:08:09.928Z,3.67
2022-10-19T20:10:41.109Z,3.63
2022-10-19T20:13:07.805Z,3.77
2022-10-19T20:15:37.475Z,3.37
2022-10-19T20:18:04.028Z,3.33
2022-10-19T20:20:30.687Z,3.33
2022-10-19T20:22:57.700Z,4.00
2022-10-19T20:25:24.186Z,4.37
2022-10-19T20:27:50.777Z,3.87
2022-10-19T20:30:17.660Z,4.00
2022-10-19T20:32:44.154Z,4.30
2022-10-19T20:35:10.656Z,3.53
2022-10-19T20:37:37.224Z,3.80
2022-10-19T20:40:08.529Z,3.30
2022-10-19T20:42:35.986Z,3.67
2022-10-19T20:45:03.068Z,3.73
2022-10-19T20:47:29.716Z,3.70
2022-10-19T20:49:56.240Z,3.90
2022-10-19T20:52:22.779Z,4.17
2022-10-19T20:54:49.361Z,3.20
2022-10-19T20:57:16.182Z,3.63
2022-10-19T20:59:43.978Z,3.67
2022-10-19T21:02:11.213Z,3.63
2022-10-19T21:04:37.856Z,4.00
2022-10-19T21:07:05.030Z,4.00
2022-10-19T21:09:31.851Z,3.80
2022-10-19T21:11:58.614Z,3.97
2022-10-19T21:14:28.817Z,4.10
2022-10-19T21:16:56.994Z,3.73
2022-10-19T21:19:25.738Z,4.33
2022-10-19T21:21:55.556Z,4.17
2022-10-19T21:24:27.654Z,4.13
2022-10-19T21:26:54.381Z,4.03
2022-10-19T21:29:20.932Z,3.63
2022-10-19T21:31:49.790Z,4.30
2022-10-19T21:34:21.896Z,4.40
2022-10-19T21:36:48.913Z,3.63
2022-10-19T21:39:15.847Z,3.90
2022-10-19T21:41:42.509Z,4.17
2022-10-19T21:44:09.335Z,3.37
2022-10-19T21:46:35.852Z,4.27
2022-10-19T21:49:02.566Z,4.60
2022-10-19T21:51:52.129Z,3.93
2022-10-19T21:54:20.802Z,4.23
2022-10-19T21:56:48.295Z,4.57
2022-10-19T21:59:15.346Z,3.93
2022-10-19T22:01:42.286Z,4.27
2022-10-19T22:04:12.908Z,4.30
2022-10-19T22:06:40.167Z,4.57
2022-10-19T22:09:08.391Z,4.10
2022-10-19T22:11:34.917Z,4.77
2022-10-19T22:14:02.961Z,4.97
2022-10-19T22:16:30.417Z,4.83
2022-10-19T22:18:57.349Z,4.53
2022-10-19T22:21:26.510Z,4.80
2022-10-19T22:24:04.279Z,4.73
2022-10-19T22:26:36.301Z,4.63
2022-10-19T22:29:04.087Z,4.40
2022-10-19T22:31:31.998Z,4.10
2022-10-19T22:34:02.103Z,4.97
2022-10-19T22:36:28.728Z,5.33
2022-10-19T22:38:55.484Z,4.63
2022-10-19T22:41:22.305Z,4.73
2022-10-19T22:43:48.946Z,4.13
2022-10-19T22:46:15.570Z,4.13
2022-10-19T22:48:42.012Z,4.50
2022-10-19T22:51:08.636Z,4.23
2022-10-19T22:53:35.169Z,4.73
2022-10-19T22:56:01.818Z,4.60
2022-10-19T22:58:28.378Z,4.30
2022-10-19T23:01:03.119Z,4.27
2022-10-19T23:03:29.727Z,4.23
2022-10-19T23:05:56.306Z,4.30
2022-10-19T23:08:23.075Z,4.27
2022-10-19T23:10:49.544Z,4.97
2022-10-19T23:13:16.065Z,4.93
2022-10-19T23:15:44.040Z,4.40
2022-10-19T23:18:11.207Z,5.17
2022-10-19T23:20:37.746Z,5.00
2022-10-19T23:23:04.365Z,4.83
2022-10-19T23:28:04.332Z,4.93
2022-10-19T23:30:30.838Z,4.67
2022-10-19T23:32:57.301Z,4.70
2022-10-19T23:35:23.788Z,5.20
2022-10-19T23:37:50.290Z,5.70
2022-10-19T23:40:16.874Z,5.50
2022-10-19T23:42:43.402Z,5.57
2022-10-19T23:45:10.357Z,5.50
2022-10-19T23:47:37.345Z,5.00
2022-10-19T23:50:04.362Z,5.60
2022-10-19T23:52:30.818Z,5.37
2022-10-19T23:54:57.412Z,5.17
2022-10-19T23:57:23.956Z,5.70
2022-10-19T23:59:50.442Z,5.23
